Time;durP1;ratioP1;P1;durP2;ratioP2;P2;SDS_P1;SDS_P2;PMS_P1;PMS_P2;Temp;Humidity;BMP_temperature;BMP_pressure;BME280_temperature;BME280_humidity;BME280_pressure;Samples;Min_cycle;Max_cycle;Signal;HPM_P1;HPM_P2
2022/03/23 00:01:16;;;;;;;30.25;20.30;;;;;;;4.82;74.24;103028.00;4736143;30;20071;-75
2022/03/23 00:03:42;;;;;;;31.25;20.63;;;;;;;4.57;75.19;102995.66;4736151;30;20120;-76
2022/03/23 00:06:08;;;;;;;35.92;20.55;;;;;;;4.67;75.46;103022.06;4735871;30;20098;-75
2022/03/23 00:08:33;;;;;;;32.47;20.13;;;;;;;4.38;75.60;102984.63;4735986;30;20111;-78
2022/03/23 00:10:59;;;;;;;33.50;21.63;;;;;;;4.51;75.74;103021.25;4735743;30;20118;-75
2022/03/23 00:13:24;;;;;;;30.30;21.38;;;;;;;4.37;74.90;102988.03;4736060;30;20041;-76
2022/03/23 00:15:49;;;;;;;31.35;20.58;;;;;;;4.32;75.50;102985.47;4735641;30;20098;-74
2022/03/23 00:18:15;;;;;;;36.22;22.05;;;;;;;4.50;75.84;103017.00;4735078;30;20031;-80
2022/03/23 00:20:40;;;;;;;37.55;21.40;;;;;;;4.48;75.65;103024.69;4735555;30;20029;-75
2022/03/23 00:23:09;;;;;;;37.25;22.50;;;;;;;4.27;76.33;102991.47;4735580;30;20135;-76
2022/03/23 00:25:35;;;;;;;35.53;21.13;;;;;;;4.38;76.04;103009.34;4735352;30;20049;-76
2022/03/23 00:28:01;;;;;;;31.63;21.90;;;;;;;4.28;76.23;102993.19;4735508;30;20033;-75
2022/03/23 00:30:26;;;;;;;33.42;20.08;;;;;;;4.16;75.98;102988.94;4719997;30;20437;-75
2022/03/23 00:32:51;;;;;;;34.58;20.42;;;;;;;3.97;76.33;102970.22;4736077;30;20036;-83
2022/03/23 00:35:17;;;;;;;31.23;20.30;;;;;;;4.05;76.64;103000.03;4735434;30;20486;-75
2022/03/23 00:37:46;;;;;;;31.38;19.75;;;;;;;4.12;76.88;103022.16;4735535;30;20068;-75
2022/03/23 00:40:12;;;;;;;30.30;20.42;;;;;;;4.08;77.28;103021.34;4735496;30;20073;-77
2022/03/23 00:42:37;;;;;;;32.05;20.80;;;;;;;4.04;77.35;103024.75;4735285;30;20037;-77
2022/03/23 00:45:04;;;;;;;34.22;21.60;;;;;;;4.01;76.80;103022.19;4735587;30;20040;-75
2022/03/23 00:47:29;;;;;;;32.30;20.60;;;;;;;3.95;77.45;103027.31;4735495;30;20036;-75
2022/03/23 00:49:55;;;;;;;30.48;19.23;;;;;;;3.86;77.63;103025.63;4735526;30;20471;-76
2022/03/23 00:52:20;;;;;;;33.83;20.98;;;;;;;3.85;77.66;103020.50;4735124;30;20033;-75
2022/03/23 00:54:45;;;;;;;31.70;20.60;;;;;;;3.76;78.27;103020.50;4735088;30;20037;-75
2022/03/23 00:57:11;;;;;;;31.73;20.05;;;;;;;3.49;78.48;102988.09;4735249;30;20542;-85
2022/03/23 00:59:36;;;;;;;34.40;20.33;;;;;;;3.70;78.35;103029.00;4735469;30;20442;-86
2022/03/23 01:02:02;;;;;;;30.33;20.77;;;;;;;3.35;78.60;102981.28;4735422;30;20094;-75
2022/03/23 01:04:28;;;;;;;33.42;20.38;;;;;;;3.44;78.59;103011.06;4735539;30;20040;-76
2022/03/23 01:06:54;;;;;;;34.83;21.15;;;;;;;3.34;78.60;102992.34;4735082;30;20433;-77
2022/03/23 01:09:23;;;;;;;31.25;19.80;;;;;;;3.48;78.71;103028.13;4735080;30;20043;-87
2022/03/23 01:11:53;;;;;;;33.55;21.08;;;;;;;3.51;78.37;103017.91;4735131;30;20060;-87
2022/03/23 01:14:20;;;;;;;35.75;22.95;;;;;;;3.48;78.76;103015.34;4735251;30;20028;-86
2022/03/23 01:16:45;;;;;;;32.20;20.92;;;;;;;3.41;79.18;103021.28;4735128;30;20440;-88
2022/03/23 01:19:12;;;;;;;39.08;22.83;;;;;;;3.28;78.84;102983.81;4735242;30;20087;-87
2022/03/23 01:21:37;;;;;;;37.42;21.77;;;;;;;3.08;79.08;102950.59;4734790;30;20047;-87
2022/03/23 01:24:05;;;;;;;31.40;20.88;;;;;;;3.22;79.23;102977.00;4734966;30;20676;-88
2022/03/23 01:26:30;;;;;;;37.83;21.00;;;;;;;3.13;79.80;102970.16;4734881;30;20040;-88
2022/03/23 01:28:55;;;;;;;34.72;23.40;;;;;;;3.39;80.27;103017.88;4734894;30;20103;-79
2022/03/23 01:31:21;;;;;;;33.10;23.17;;;;;;;3.43;80.79;103014.47;4734902;30;20040;-86
2022/03/23 01:33:46;;;;;;;38.03;22.08;;;;;;;3.30;79.99;103002.53;4734843;30;20036;-88
2022/03/23 01:36:11;;;;;;;32.53;21.42;;;;;;;3.15;80.50;102981.25;4734576;30;20084;-87
2022/03/23 01:38:37;;;;;;;30.88;20.52;;;;;;;3.28;81.74;103005.09;4734772;30;20064;-86
2022/03/23 01:41:03;;;;;;;34.72;21.58;;;;;;;3.34;82.32;103000.03;4734852;30;20028;-85
2022/03/23 01:43:29;;;;;;;31.73;21.23;;;;;;;3.26;81.29;102995.75;4734550;30;20032;-84
2022/03/23 01:45:55;;;;;;;31.35;20.77;;;;;;;3.19;81.43;103002.53;4734729;30;20494;-87
2022/03/23 01:48:22;;;;;;;32.67;20.30;;;;;;;3.10;81.49;103002.50;4734817;30;20402;-86
2022/03/23 01:50:47;;;;;;;34.42;21.48;;;;;;;3.14;82.14;102988.88;4734542;30;20036;-87
2022/03/23 01:53:13;;;;;;;30.67;20.30;;;;;;;2.85;81.78;102953.94;4734539;30;20059;-87
2022/03/23 01:55:39;;;;;;;36.35;22.38;;;;;;;2.97;81.90;102971.00;4734480;30;20028;-80
2022/03/23 01:58:04;;;;;;;40.40;22.45;;;;;;;3.07;81.65;102994.84;4734563;30;20063;-75
2022/03/23 02:00:30;;;;;;;34.45;20.60;;;;;;;2.89;81.62;102982.88;4734598;30;20040;-75
2022/03/23 02:02:55;;;;;;;33.88;20.95;;;;;;;2.96;81.87;102996.50;4734842;30;20051;-76
2022/03/23 02:05:21;;;;;;;34.22;21.40;;;;;;;2.91;81.97;102985.41;4734649;30;20036;-75
2022/03/23 02:07:46;;;;;;;34.45;20.77;;;;;;;2.86;81.81;102999.03;4734350;30;20032;-84
2022/03/23 02:10:12;;;;;;;52.60;23.55;;;;;;;2.58;81.72;102948.72;4734306;30;20032;-77
2022/03/23 02:12:38;;;;;;;34.67;21.67;;;;;;;2.56;82.17;102952.97;4734280;30;20041;-76
2022/03/23 02:15:12;;;;;;;36.15;21.08;;;;;;;2.66;82.13;102982.78;4734217;30;20058;-75
2022/03/23 02:17:38;;;;;;;32.67;21.45;;;;;;;2.69;82.57;102990.44;4718549;30;20567;-74
2022/03/23 02:20:03;;;;;;;37.97;22.63;;;;;;;2.61;82.75;102987.00;4734321;30;20033;-75
2022/03/23 02:22:29;;;;;;;33.22;21.98;;;;;;;2.61;82.59;102988.69;4733796;30;20474;-74
2022/03/23 02:24:55;;;;;;;38.75;23.50;;;;;;;2.48;82.42;102968.25;4734454;30;20103;-77
2022/03/23 02:27:20;;;;;;;34.88;22.77;;;;;;;2.51;82.84;102986.09;4734350;30;20544;-75
2022/03/23 02:29:46;;;;;;;35.10;23.15;;;;;;;2.48;82.50;102988.66;4734208;30;20444;-81
2022/03/23 02:32:13;;;;;;;36.03;22.65;;;;;;;2.32;82.95;102969.00;4734349;30;20025;-81
2022/03/23 02:34:38;;;;;;;33.95;22.63;;;;;;;2.47;82.94;102986.09;4733831;30;20042;-80
2022/03/23 02:37:04;;;;;;;33.92;22.42;;;;;;;2.36;83.16;102973.28;4734252;30;20032;-76
2022/03/23 02:39:30;;;;;;;37.80;23.30;;;;;;;2.33;82.87;102968.16;4718401;30;20383;-75
2022/03/23 02:41:56;;;;;;;38.28;23.48;;;;;;;2.39;83.24;102986.03;4736016;30;20040;-85
2022/03/23 02:44:22;;;;;;;36.78;25.02;;;;;;;2.34;83.05;102995.34;4737530;30;20094;-88
2022/03/23 02:46:48;;;;;;;35.75;23.02;;;;;;;2.33;83.42;102986.00;4737243;30;20035;-86
2022/03/23 02:49:18;;;;;;;37.83;24.65;;;;;;;2.24;83.14;102979.13;4737513;30;20033;-81
2022/03/23 02:51:44;;;;;;;38.15;25.13;;;;;;;2.26;83.13;102972.38;4737460;30;20065;-76
2022/03/23 03:02:38;;;;;;;43.25;24.00;;;;;;;2.21;82.98;102980.84;4737463;30;20055;-82
2022/03/23 03:05:05;;;;;;;35.90;23.08;;;;;;;2.19;83.80;102985.94;4737272;30;20493;-85
2022/03/23 03:08:44;;;;;;;38.47;23.92;;;;;;;1.98;83.89;102958.59;4737028;30;20033;-85
2022/03/23 03:10:16;;;;;;;39.15;23.15;;;;;;;1.96;83.52;102959.41;4737012;30;20045;-87
2022/03/23 03:12:42;;;;;;;35.90;23.75;;;;;;;1.76;83.70;102927.84;4737093;30;20393;-87
2022/03/23 03:15:10;;;;;;;37.35;24.48;;;;;;;2.04;83.79;102996.00;4736957;30;20069;-85
2022/03/23 03:17:36;;;;;;;35.10;23.77;;;;;;;2.01;84.03;102994.28;4737148;30;20033;-79
2022/03/23 03:20:03;;;;;;;34.08;23.00;;;;;;;1.70;84.10;102954.16;4720930;30;20041;-78
2022/03/23 03:22:34;;;;;;;35.58;23.10;;;;;;;1.80;84.02;102972.91;4737121;30;20055;-82
2022/03/23 03:24:59;;;;;;;36.28;24.58;;;;;;;1.80;84.28;102976.31;4736997;30;20033;-74
2022/03/23 03:27:24;;;;;;;34.75;23.10;;;;;;;1.91;83.98;102997.63;4737011;30;20039;-74
2022/03/23 03:29:50;;;;;;;37.40;24.15;;;;;;;1.76;84.25;102981.34;4736781;30;20115;-75
2022/03/23 03:32:15;;;;;;;38.90;24.75;;;;;;;1.90;84.62;103001.00;4736837;30;20028;-74
2022/03/23 03:34:40;;;;;;;37.38;24.33;;;;;;;1.61;84.13;102959.16;4736585;30;20064;-74
2022/03/23 03:37:06;;;;;;;36.83;24.08;;;;;;;1.94;83.72;103005.28;4736812;30;20112;-74
2022/03/23 03:39:31;;;;;;;34.92;23.35;;;;;;;1.92;83.52;103004.41;4736530;30;20549;-74
2022/03/23 03:41:57;;;;;;;37.22;23.42;;;;;;;1.88;83.52;102997.59;4736811;30;20029;-75
2022/03/23 03:44:23;;;;;;;34.67;22.88;;;;;;;1.87;83.89;103003.53;4736492;30;20108;-74
2022/03/23 03:46:48;;;;;;;34.88;23.08;;;;;;;1.76;83.57;102984.75;4736438;30;20190;-74
2022/03/23 03:49:15;;;;;;;35.83;23.25;;;;;;;1.73;83.69;102977.09;4736466;30;20068;-76
2022/03/23 03:51:42;;;;;;;39.53;23.30;;;;;;;1.88;83.88;103005.25;4736392;30;20043;-75
2022/03/23 03:54:07;;;;;;;37.58;24.05;;;;;;;1.77;83.77;102994.13;4735243;30;20033;-75
2022/03/23 03:56:33;;;;;;;35.47;23.42;;;;;;;1.89;83.74;103008.66;4736142;30;20047;-78
2022/03/23 03:58:59;;;;;;;33.78;23.02;;;;;;;1.70;83.70;102984.72;4736297;30;20047;-74
2022/03/23 04:01:24;;;;;;;41.53;24.83;;;;;;;1.52;84.22;102967.56;4736726;30;20025;-75
2022/03/23 04:03:49;;;;;;;39.00;24.58;;;;;;;1.66;84.16;102988.91;4736187;30;20044;-76
2022/03/23 04:06:15;;;;;;;35.50;23.17;;;;;;;1.71;84.09;103000.00;4736010;30;20509;-75
2022/03/23 04:08:40;;;;;;;39.92;23.65;;;;;;;1.66;84.32;102993.16;4735999;30;20037;-75
2022/03/23 04:11:06;;;;;;;40.95;25.88;;;;;;;1.77;84.57;103013.59;4720158;30;20033;-75
2022/03/23 04:13:32;;;;;;;36.25;24.42;;;;;;;1.75;84.23;103015.31;4736145;30;20036;-75
2022/03/23 04:15:57;;;;;;;38.60;24.10;;;;;;;1.71;84.35;103007.63;4720229;30;20045;-74
2022/03/23 04:18:22;;;;;;;36.80;24.17;;;;;;;1.72;84.75;103011.03;4736064;30;20518;-72
2022/03/23 04:20:48;;;;;;;37.53;24.13;;;;;;;1.44;84.33;102962.41;4735756;30;20087;-74
2022/03/23 04:23:13;;;;;;;40.97;25.80;;;;;;;1.56;84.73;102997.31;4735631;30;20053;-75
2022/03/23 04:25:38;;;;;;;38.42;25.10;;;;;;;1.59;84.61;103005.00;4719674;30;20057;-74
2022/03/23 04:28:04;;;;;;;37.78;24.00;;;;;;;1.57;84.90;102993.06;4735793;30;20037;-76
2022/03/23 04:30:31;;;;;;;39.42;25.42;;;;;;;1.58;84.80;103005.84;4736027;30;20032;-75
2022/03/23 04:32:57;;;;;;;37.90;24.27;;;;;;;1.47;84.70;102988.72;4735773;30;20029;-75
2022/03/23 04:35:22;;;;;;;38.72;24.42;;;;;;;1.57;85.12;103014.28;4735539;30;20040;-74
2022/03/23 04:37:48;;;;;;;40.45;24.38;;;;;;;1.63;84.12;103014.34;4735543;30;20033;-75
2022/03/23 04:40:14;;;;;;;40.65;24.77;;;;;;;1.55;84.43;102999.84;4735351;30;20035;-74
2022/03/23 04:42:40;;;;;;;41.03;24.02;;;;;;;1.62;84.55;103011.81;4720131;30;20047;-74
2022/03/23 04:45:06;;;;;;;38.50;24.35;;;;;;;1.52;84.92;103012.56;4735562;30;20037;-84
2022/03/23 04:47:33;;;;;;;40.22;24.95;;;;;;;1.49;84.64;103004.91;4719828;30;20041;-88
2022/03/23 04:49:59;;;;;;;36.78;23.58;;;;;;;1.55;84.63;103018.50;4735555;30;20051;-87
2022/03/23 04:52:25;;;;;;;38.40;23.52;;;;;;;1.51;84.56;103010.84;4737692;30;20088;-77
2022/03/23 04:54:50;;;;;;;37.60;24.45;;;;;;;1.56;84.51;103016.81;4736915;30;20177;-78
2022/03/23 04:57:16;;;;;;;39.38;24.45;;;;;;;1.51;84.89;103010.84;4721694;30;20048;-76
2022/03/23 04:59:42;;;;;;;36.70;25.00;;;;;;;1.50;85.23;103007.44;4735763;30;20029;-74
2022/03/23 05:02:07;;;;;;;43.00;25.85;;;;;;;1.58;85.31;103015.16;4735316;30;20121;-78
2022/03/23 05:04:32;;;;;;;43.42;26.85;;;;;;;1.59;84.91;103019.41;4735042;30;20029;-74
2022/03/23 05:06:58;;;;;;;41.35;25.67;;;;;;;1.48;85.17;103006.59;4735301;30;20032;-74
2022/03/23 05:09:23;;;;;;;41.78;25.58;;;;;;;1.54;84.65;103027.00;4735036;30;20375;-74
2022/03/23 05:11:48;;;;;;;37.85;24.92;;;;;;;1.21;84.99;102978.31;4735302;30;20025;-75
2022/03/23 05:14:15;;;;;;;41.47;24.88;;;;;;;1.37;85.19;103013.25;4735325;30;20371;-75
2022/03/23 05:16:41;;;;;;;36.95;24.52;;;;;;;1.51;85.94;103031.22;4735173;30;20485;-75
2022/03/23 05:19:06;;;;;;;40.53;25.65;;;;;;;1.56;85.53;103027.00;4734973;30;20067;-74
2022/03/23 05:21:32;;;;;;;37.85;24.20;;;;;;;1.48;85.72;103023.56;4734776;30;20059;-75
2022/03/23 05:23:57;;;;;;;40.00;25.88;;;;;;;1.56;85.71;103032.09;4734849;30;20403;-75
2022/03/23 05:26:22;;;;;;;36.72;24.42;;;;;;;1.33;85.65;103004.72;4734914;30;20044;-75
2022/03/23 05:28:48;;;;;;;40.22;24.30;;;;;;;1.49;85.59;103033.75;4735168;30;20393;-74
2022/03/23 05:31:13;;;;;;;40.42;24.40;;;;;;;1.52;85.61;103036.31;4735076;30;20040;-75
2022/03/23 05:33:39;;;;;;;37.60;24.40;;;;;;;1.16;85.52;102985.88;4734951;30;20029;-75
2022/03/23 05:36:04;;;;;;;41.35;23.98;;;;;;;1.42;85.29;103031.97;4734709;30;20119;-74
2022/03/23 05:38:30;;;;;;;37.38;24.38;;;;;;;1.42;85.29;103032.81;4734918;30;20040;-74
2022/03/23 05:40:55;;;;;;;38.97;24.10;;;;;;;1.42;86.01;103043.00;4734512;30;20036;-75
2022/03/23 05:43:20;;;;;;;37.33;24.10;;;;;;;1.43;85.61;103044.72;4734695;30;20028;-75
2022/03/23 05:45:46;;;;;;;39.05;26.73;;;;;;;1.46;85.99;103048.13;4734650;30;20062;-76
2022/03/23 05:48:11;;;;;;;38.70;24.58;;;;;;;1.43;85.56;103037.06;4734718;30;20032;-77
2022/03/23 05:50:37;;;;;;;40.05;24.92;;;;;;;1.45;85.43;103029.44;4734584;30;20521;-74
2022/03/23 05:53:02;;;;;;;40.20;25.13;;;;;;;1.56;85.12;103052.47;4734529;30;20057;-75
2022/03/23 05:55:28;;;;;;;43.28;26.77;;;;;;;1.41;85.50;103032.81;4734305;30;20501;-74
2022/03/23 05:57:55;;;;;;;43.30;27.20;;;;;;;1.64;84.93;103058.50;4718729;30;20458;-75
2022/03/23 06:00:20;;;;;;;38.80;24.67;;;;;;;1.60;85.34;103055.09;4734701;30;20113;-75
2022/03/23 06:02:45;;;;;;;46.33;26.23;;;;;;;1.70;84.66;103061.97;4734579;30;20088;-80
2022/03/23 06:05:11;;;;;;;40.20;24.52;;;;;;;1.67;84.57;103048.34;4734424;30;20525;-75
2022/03/23 06:07:36;;;;;;;37.58;24.73;;;;;;;1.44;84.54;103012.47;4734278;30;20033;-80
2022/03/23 06:10:07;;;;;;;39.97;25.70;;;;;;;1.63;84.72;103034.72;4734397;30;20043;-75
2022/03/23 06:12:32;;;;;;;42.45;24.98;;;;;;;1.91;84.47;103065.56;4734356;30;20028;-76
2022/03/23 06:14:57;;;;;;;40.50;26.05;;;;;;;1.82;83.89;103032.34;4734437;30;20470;-77
2022/03/23 06:17:23;;;;;;;42.00;25.05;;;;;;;2.07;83.68;103071.66;4736842;30;20556;-85
2022/03/23 06:19:48;;;;;;;41.20;25.42;;;;;;;2.15;83.87;103067.44;4738037;30;20039;-78
2022/03/23 06:22:13;;;;;;;40.65;24.83;;;;;;;2.23;83.84;103076.00;4738018;30;20052;-80
2022/03/23 06:24:39;;;;;;;40.25;25.23;;;;;;;2.24;84.27;103055.63;4737970;30;20116;-84
2022/03/23 06:27:05;;;;;;;42.83;26.25;;;;;;;2.45;84.37;103067.66;4721818;30;20042;-75
2022/03/23 06:29:30;;;;;;;39.60;25.48;;;;;;;2.48;84.10;103064.28;4737959;30;20032;-84
2022/03/23 06:31:55;;;;;;;40.88;26.10;;;;;;;2.63;83.57;103077.13;4737884;30;20032;-75
2022/03/23 06:34:21;;;;;;;40.63;25.23;;;;;;;2.71;83.62;103069.53;4721746;30;20045;-89
2022/03/23 06:36:46;;;;;;;42.13;26.17;;;;;;;2.68;82.97;103042.31;4737787;30;20121;-77
2022/03/23 06:39:12;;;;;;;44.88;26.05;;;;;;;2.77;83.10;103038.97;4737678;30;20108;-76
2022/03/23 06:41:37;;;;;;;40.17;25.13;;;;;;;3.09;82.61;103072.28;4721722;30;20551;-76
2022/03/23 06:44:03;;;;;;;45.95;27.13;;;;;;;3.39;82.35;103059.59;4721513;30;20060;-80
2022/03/23 06:46:28;;;;;;;40.38;25.92;;;;;;;4.90;79.31;103081.72;4737454;30;20029;-78
2022/03/23 06:48:54;;;;;;;40.60;26.05;;;;;;;6.10;74.39;103056.28;4737593;30;20028;-85
2022/03/23 06:51:19;;;;;;;39.97;25.00;;;;;;;7.46;70.11;103079.53;4737502;30;20465;-75
2022/03/23 06:53:45;;;;;;;42.53;25.88;;;;;;;8.47;65.29;103077.97;4737534;30;20040;-75
2022/03/23 06:56:10;;;;;;;39.10;24.00;;;;;;;9.23;61.81;103046.38;4736413;30;20032;-84
2022/03/23 06:58:36;;;;;;;35.60;23.83;;;;;;;10.07;58.48;103058.16;4737217;30;20362;-78
2022/03/23 07:01:38;;;;;;;39.92;23.95;;;;;;;11.00;60.17;103070.31;4738813;30;20033;-76
2022/03/23 07:04:06;;;;;;;;;;;;;;;11.51;65.32;103069.66;4737953;30;20056;-78
2022/03/23 07:09:57;;;;;;;36.30;24.70;;;;;;;11.32;56.87;103084.91;4736500;30;20045;-80
2022/03/23 07:15:19;;;;;;;42.20;25.05;;;;;;;8.62;60.73;103089.69;4707447;28;20532;-75
2022/03/23 07:17:54;;;;;;;40.38;25.65;;;;;;;6.83;62.38;102934.81;4719191;30;20041;-78
2022/03/23 07:30:26;;;;;;;41.13;27.45;;;;;;;6.40;65.79;103111.59;4719542;30;20170;-79
2022/03/23 07:46:59;;;;;;;41.88;28.58;;;;;;;6.07;65.17;103066.56;4734454;30;20061;-73
2022/03/23 07:49:24;;;;;;;40.92;28.17;;;;;;;6.23;65.69;103086.09;4736637;30;20044;-76
2022/03/23 07:51:50;;;;;;;42.63;28.75;;;;;;;6.25;64.79;103079.22;4736460;30;20041;-87
2022/03/23 07:54:16;;;;;;;40.53;28.48;;;;;;;6.49;64.96;103117.50;4736692;30;20040;-76
2022/03/23 07:56:41;;;;;;;45.22;28.88;;;;;;;6.56;65.22;103116.56;4736232;30;20040;-75
2022/03/23 07:59:06;;;;;;;43.55;27.80;;;;;;;6.46;65.46;103088.44;4736306;30;20086;-87
2022/03/23 08:01:33;;;;;;;49.75;29.88;;;;;;;6.56;66.11;103088.31;4734907;30;20534;-79
2022/03/23 08:03:58;;;;;;;49.80;28.88;;;;;;;6.82;65.06;103118.03;4735055;30;20041;-73
2022/03/23 08:06:25;;;;;;;42.20;28.20;;;;;;;6.77;64.99;103099.25;4736540;30;20094;-73
2022/03/23 08:08:51;;;;;;;43.35;29.02;;;;;;;6.72;63.95;103063.34;4736237;30;20029;-77
2022/03/23 08:11:16;;;;;;;41.80;27.50;;;;;;;7.08;62.67;103118.59;4736250;30;20067;-75
2022/03/23 08:13:44;;;;;;;40.97;27.98;;;;;;;7.18;63.00;103116.78;4736109;30;20035;-75
2022/03/23 08:16:15;;;;;;;45.42;27.40;;;;;;;7.15;62.37;103104.78;4736108;30;20116;-82
2022/03/23 08:18:41;;;;;;;39.35;27.55;;;;;;;7.29;62.09;103111.50;4735964;30;20477;-73
2022/03/23 08:21:06;;;;;;;44.17;28.10;;;;;;;7.18;61.72;103079.09;4736109;30;20060;-78
2022/03/23 08:23:32;;;;;;;40.83;27.30;;;;;;;7.34;61.67;103094.28;4735827;30;20067;-72
2022/03/23 08:26:08;;;;;;;41.75;29.08;;;;;;;7.27;61.94;103066.94;4736019;30;20025;-75
2022/03/23 08:28:39;;;;;;;55.30;28.77;;;;;;;7.68;61.70;103115.25;4735640;30;20552;-76
2022/03/23 08:31:04;;;;;;;41.97;27.92;;;;;;;7.80;61.75;103114.22;4734406;30;20552;-75
2022/03/23 08:33:32;;;;;;;39.20;28.88;;;;;;;7.95;61.41;103125.13;4736062;30;20036;-76
2022/03/23 08:35:59;;;;;;;47.05;28.83;;;;;;;8.09;61.66;103117.19;4735772;30;20043;-79
2022/03/23 08:38:25;;;;;;;43.58;28.80;;;;;;;8.21;61.02;103122.13;4735516;30;20029;-80
2022/03/23 08:40:50;;;;;;;46.28;31.08;;;;;;;8.26;61.26;103098.91;4735496;30;20029;-76
2022/03/23 08:43:46;;;;;;;40.95;29.08;;;;;;;7.89;61.92;103034.34;4734282;30;20496;-74
2022/03/23 08:46:24;;;;;;;45.28;31.35;;;;;;;8.16;61.81;103056.16;4735486;30;20033;-76
2022/03/23 08:48:55;;;;;;;45.30;28.92;;;;;;;8.63;61.11;103114.56;4735575;30;20075;-75
2022/03/23 08:51:23;;;;;;;41.08;29.88;;;;;;;8.26;60.59;103037.97;4735427;30;20379;-75
2022/03/23 08:53:49;;;;;;;42.25;28.42;;;;;;;8.87;59.62;103118.44;4735398;30;20053;-75
2022/03/23 08:56:14;;;;;;;45.30;29.05;;;;;;;8.62;60.04;103046.75;4735285;30;20040;-75
2022/03/23 08:58:47;;;;;;;43.78;30.63;;;;;;;9.14;59.05;103114.44;4735099;30;20044;-74
2022/03/23 09:01:13;;;;;;;41.38;29.38;;;;;;;9.08;59.20;103099.13;4735255;30;20495;-76
2022/03/23 09:03:38;;;;;;;43.55;28.83;;;;;;;9.31;57.93;103119.25;4734353;30;20032;-75
2022/03/23 09:06:04;;;;;;;38.38;28.42;;;;;;;9.44;58.62;103118.13;4735356;30;20040;-76
2022/03/23 09:08:29;;;;;;;39.92;28.60;;;;;;;9.54;56.60;103118.75;4735297;30;20103;-74
2022/03/23 09:10:55;;;;;;;38.92;28.35;;;;;;;9.61;57.52;103126.31;4735037;30;20033;-73
2022/03/23 09:13:21;;;;;;;44.95;29.20;;;;;;;9.43;57.07;103083.72;4734840;30;20098;-75
2022/03/23 09:15:48;;;;;;;39.60;28.80;;;;;;;9.63;57.18;103105.66;4735178;30;20036;-71
2022/03/23 09:18:13;;;;;;;42.45;29.45;;;;;;;9.78;58.06;103115.63;4735045;30;20563;-73
2022/03/23 09:20:39;;;;;;;37.65;27.65;;;;;;;9.78;56.88;103101.00;4734876;30;20028;-73
2022/03/23 09:23:08;;;;;;;38.53;26.90;;;;;;;9.77;56.69;103078.66;4735159;30;20036;-74
2022/03/23 09:25:36;;;;;;;49.35;28.10;;;;;;;9.97;55.68;103092.81;4734979;30;20044;-77
2022/03/23 09:28:03;;;;;;;47.92;28.85;;;;;;;10.10;54.59;103101.13;4735133;30;20039;-74
2022/03/23 09:30:28;;;;;;;39.50;28.25;;;;;;;10.12;55.34;103096.75;4732368;30;20045;-75
2022/03/23 09:32:54;;;;;;;43.88;27.70;;;;;;;10.33;55.78;103114.34;4735111;30;20036;-74
2022/03/23 09:35:19;;;;;;;42.10;28.02;;;;;;;10.21;54.36;103084.47;4734696;30;20199;-75
2022/03/23 09:37:52;;;;;;;39.65;26.90;;;;;;;10.55;54.03;103106.88;4734879;30;20497;-76
2022/03/23 09:40:30;;;;;;;40.97;27.45;;;;;;;10.59;53.66;103083.50;4734930;30;20393;-76
2022/03/23 09:43:11;;;;;;;44.45;27.27;;;;;;;10.80;52.54;103100.16;4734903;30;20029;-77
2022/03/23 09:48:09;;;;;;;44.15;28.58;;;;;;;10.42;51.73;102989.25;4734577;30;20423;-74
2022/03/23 09:50:36;;;;;;;38.03;25.92;;;;;;;10.94;51.25;103076.50;4733353;30;20135;-75
2022/03/23 09:53:02;;;;;;;39.65;25.75;;;;;;;11.09;50.27;103096.75;4734583;30;20104;-74
2022/03/23 09:55:28;;;;;;;38.22;27.83;;;;;;;11.24;50.93;103110.13;4734484;30;20036;-76
2022/03/23 09:57:55;;;;;;;35.35;26.40;;;;;;;11.40;49.96;103116.53;4734614;30;20586;-76
2022/03/23 10:00:20;;;;;;;34.90;25.63;;;;;;;11.53;50.12;103117.88;4734422;30;20037;-74
2022/03/23 10:02:58;;;;;;;40.78;25.75;;;;;;;11.62;50.78;103120.19;4734404;30;20047;-75
2022/03/23 10:05:48;;;;;;;34.90;25.40;;;;;;;11.71;49.72;103114.72;4734271;30;20037;-75
2022/03/23 10:08:42;;;;;;;35.25;24.73;;;;;;;11.96;48.07;103122.56;4733505;30;20037;-74
2022/03/23 10:12:04;;;;;;;33.72;23.38;;;;;;;12.05;47.50;103126.63;4734285;30;20056;-75
2022/03/23 10:14:45;;;;;;;31.77;22.70;;;;;;;12.24;46.89;103121.69;4663089;30;20480;-75
2022/03/23 10:17:39;;;;;;;34.63;24.23;;;;;;;12.26;48.24;103127.66;4663157;30;20050;-75
2022/03/23 10:20:04;;;;;;;33.58;24.10;;;;;;;12.43;46.41;103122.75;4663250;30;20057;-78
2022/03/23 10:22:30;;;;;;;36.65;24.35;;;;;;;12.25;46.24;103087.94;4663262;30;20050;-75
2022/03/23 10:25:06;;;;;;;35.22;24.13;;;;;;;12.27;46.78;103067.16;4663024;30;20433;-75
2022/03/23 10:27:32;;;;;;;36.65;23.85;;;;;;;12.47;45.50;103075.09;4663197;30;20039;-76
2022/03/23 10:29:58;;;;;;;36.15;25.27;;;;;;;12.65;44.53;103089.16;4662875;30;20365;-76
2022/03/23 10:32:32;;;;;;;37.38;25.25;;;;;;;12.85;44.80;103104.84;4663117;30;20480;-76
2022/03/23 10:34:57;;;;;;;35.30;25.15;;;;;;;12.66;45.99;103064.91;4662817;30;20046;-85
2022/03/23 10:37:28;;;;;;;35.45;26.30;;;;;;;13.03;46.86;103103.31;4663063;30;20042;-75
2022/03/23 10:39:56;;;;;;;38.63;25.10;;;;;;;13.14;45.41;103105.50;4648226;30;20047;-77
2022/03/23 10:42:23;;;;;;;35.03;25.80;;;;;;;13.19;44.86;103095.84;4663067;30;20085;-76
2022/03/23 10:44:50;;;;;;;35.88;26.42;;;;;;;13.30;44.41;103104.06;4674234;30;20456;-79
2022/03/23 10:54:23;;;;;;;36.10;24.65;;;;;;;13.51;43.48;103098.97;4734477;30;20073;-75
2022/03/23 10:56:56;;;;;;;34.92;24.27;;;;;;;13.56;43.01;103097.84;4733636;30;20036;-75
2022/03/23 10:59:23;;;;;;;33.50;24.83;;;;;;;13.24;43.29;103017.84;4733808;30;20033;-77
2022/03/23 11:02:16;;;;;;;33.78;24.48;;;;;;;13.73;44.62;103087.66;4734146;30;20116;-74
2022/03/23 11:07:39;;;;;;;29.30;20.75;;;;;;;13.47;39.29;103021.22;4760570;24;20060;-77
2022/03/23 11:15:49;;;;;;;29.98;20.58;;;;;;;14.21;39.06;103077.91;4737136;30;20044;-76
2022/03/23 11:18:18;;;;;;;26.98;19.92;;;;;;;14.24;37.61;103077.75;4721548;30;20458;-77
2022/03/23 11:20:52;;;;;;;29.80;21.13;;;;;;;14.33;38.70;103080.81;4737038;30;20033;-78
2022/03/23 11:23:26;;;;;;;28.23;21.55;;;;;;;14.40;37.04;103083.16;4736895;30;20044;-73
2022/03/23 11:25:55;;;;;;;30.48;21.58;;;;;;;13.95;37.42;103007.09;4736873;30;20586;-74
2022/03/23 11:28:26;;;;;;;32.83;22.38;;;;;;;14.41;37.36;103087.44;4737005;30;20040;-74
2022/03/23 11:30:52;;;;;;;28.17;21.48;;;;;;;14.20;37.16;103047.63;4736761;30;20390;-83
2022/03/23 11:33:38;;;;;;;34.13;21.27;;;;;;;14.36;36.42;103061.66;4720193;30;20049;-82
2022/03/23 11:36:12;;;;;;;27.73;19.90;;;;;;;13.99;36.61;103002.63;4720694;30;20126;-81
2022/03/23 11:38:41;;;;;;;28.58;21.50;;;;;;;14.60;36.26;103076.22;4720900;30;20378;-82
2022/03/23 11:41:08;;;;;;;29.27;21.00;;;;;;;14.54;35.45;103055.66;4721069;30;20079;-82
2022/03/23 12:29:20;;;;;;;30.80;21.40;;;;;;;15.55;32.03;103040.59;4736154;30;20099;-79
2022/03/23 13:03:47;;;;;;;30.90;22.50;;;;;;;15.66;31.29;103008.84;4664066;30;20053;-78
2022/03/23 13:06:16;;;;;;;32.30;21.70;;;;;;;14.79;31.54;102865.56;4618468;30;20466;-75
2022/03/23 13:09:22;;;;;;;28.95;20.88;;;;;;;15.58;31.40;103003.97;4647087;30;20035;-75
2022/03/23 13:15:21;;;;;;;20.98;16.60;;;;;;;15.63;29.91;102989.00;4596596;31;20040;-84
2022/03/23 13:31:54;;;;;;;19.65;14.25;;;;;;;14.79;29.62;102804.91;4629157;31;20528;-81
2022/03/23 15:52:06;;;;;;;26.05;18.92;;;;;;;14.92;29.39;102740.94;3209807;24;20387;-79
2022/03/23 15:59:14;;;;;;;27.42;18.80;;;;;;;15.89;29.45;102896.47;4643466;30;20066;-80
2022/03/23 16:01:49;;;;;;;24.83;18.27;;;;;;;15.13;28.95;102780.63;4647971;30;20496;-80
2022/03/23 16:05:05;;;;;;;27.70;19.08;;;;;;;15.03;28.56;102780.25;4647885;30;20133;-80
2022/03/23 16:07:56;;;;;;;29.08;19.85;;;;;;;15.64;29.05;102891.72;4598435;30;20426;-79
2022/03/23 16:12:51;;;;;;;25.48;18.67;;;;;;;14.65;28.22;102724.97;4717129;30;20418;-77
2022/03/23 16:18:00;;;;;;;25.85;18.52;;;;;;;14.69;28.82;102742.09;4689533;30;20058;-78
2022/03/23 16:23:38;;;;;;;29.55;19.73;;;;;;;14.49;30.05;102732.69;4683776;30;20498;-78